createdAt,value
2017-10-23T06:27:38.465Z,83.40
2017-10-23T06:28:41.108Z,83.90
2017-10-23T06:29:42.980Z,83.90
2017-10-23T06:30:45.619Z,84.10
2017-10-23T06:31:47.487Z,84.00
2017-10-23T06:32:49.388Z,83.80
2017-10-23T06:33:51.251Z,83.70
2017-10-23T06:34:53.135Z,83.50
2017-10-23T06:35:55.003Z,84.10
2017-10-23T06:36:57.646Z,84.00
2017-10-23T06:37:59.553Z,83.80
2017-10-23T06:39:01.425Z,83.90
2017-10-23T06:40:03.300Z,83.60
2017-10-23T06:41:05.176Z,83.80
2017-10-23T06:42:07.819Z,83.70
2017-10-23T06:43:09.707Z,83.70
2017-10-23T06:44:11.576Z,83.70
2017-10-23T06:45:13.443Z,83.50
2017-10-23T06:46:15.324Z,83.50
2017-10-23T06:47:17.197Z,83.70
2017-10-23T06:48:19.891Z,83.70
2017-10-23T06:49:21.759Z,83.60
2017-10-23T06:50:23.640Z,83.70
2017-10-23T06:51:25.499Z,84.90
2017-10-23T06:52:27.704Z,83.80
2017-10-23T06:53:29.607Z,83.80
2017-10-23T06:54:31.484Z,85.00
2017-10-23T06:55:34.128Z,83.70
2017-10-23T06:56:36.009Z,83.70
2017-10-23T06:57:38.653Z,83.70
2017-10-23T06:58:40.538Z,83.70
2017-10-23T06:59:42.405Z,83.60
2017-10-23T07:00:44.280Z,83.60
2017-10-23T07:01:46.151Z,84.10
2017-10-23T07:02:48.037Z,83.70
2017-10-23T07:03:49.951Z,83.80
2017-10-23T07:04:51.824Z,84.00
2017-10-23T07:05:54.492Z,83.60
2017-10-23T07:06:57.132Z,83.80
2017-10-23T07:07:59.011Z,83.80
2017-10-23T07:09:01.687Z,83.70
2017-10-23T07:10:03.565Z,83.70
2017-10-23T07:11:05.445Z,83.90
2017-10-23T07:12:07.332Z,84.00
2017-10-23T07:13:09.965Z,83.70
2017-10-23T07:14:11.872Z,83.70
2017-10-23T07:15:13.744Z,83.80
2017-10-23T07:16:15.614Z,84.10
2017-10-23T07:17:17.521Z,84.50
2017-10-23T07:18:19.395Z,84.30
2017-10-23T07:19:21.380Z,84.10
2017-10-23T07:20:23.260Z,83.80
2017-10-23T07:21:25.904Z,83.60
2017-10-23T07:22:27.784Z,83.60
2017-10-23T07:23:29.660Z,83.70
2017-10-23T07:24:31.571Z,84.70
2017-10-23T07:25:34.320Z,83.80
2017-10-23T07:26:36.274Z,83.80
2017-10-23T07:27:38.217Z,84.20
2017-10-23T07:28:40.755Z,83.70
2017-10-23T07:29:42.751Z,83.70
2017-10-23T07:30:44.613Z,83.60
2017-10-23T07:31:47.255Z,82.90
2017-10-23T07:32:49.200Z,82.90
2017-10-23T07:33:51.075Z,83.00
2017-10-23T07:34:53.887Z,83.00
2017-10-23T07:35:55.780Z,82.90
2017-10-23T07:36:57.652Z,82.50
2017-10-23T07:37:59.528Z,82.30
2017-10-23T07:39:01.693Z,82.40
2017-10-23T07:40:03.688Z,82.20
2017-10-23T07:41:05.643Z,82.70
2017-10-23T07:42:07.517Z,82.50
2017-10-23T07:43:09.389Z,82.60
2017-10-23T07:44:11.297Z,82.30
2017-10-23T07:45:13.253Z,81.80
2017-10-23T07:46:15.120Z,81.80
2017-10-23T07:47:17.868Z,82.70
2017-10-23T07:48:19.739Z,82.20
2017-10-23T07:49:21.617Z,82.90
2017-10-23T07:50:23.520Z,82.10
2017-10-23T07:51:25.391Z,82.50
2017-10-23T07:52:27.270Z,82.50
2017-10-23T07:53:29.131Z,82.30
2017-10-23T07:54:30.999Z,82.50
2017-10-23T07:55:32.887Z,82.50
2017-10-23T07:56:34.768Z,82.50
2017-10-23T07:57:36.644Z,82.20
2017-10-23T07:58:38.520Z,82.10
2017-10-23T07:59:40.397Z,82.60
2017-10-23T08:00:43.080Z,81.10
2017-10-23T08:01:45.707Z,80.80
2017-10-23T08:02:47.578Z,80.80
2017-10-23T08:03:49.455Z,81.10
2017-10-23T08:04:51.331Z,80.90
2017-10-23T08:05:53.220Z,81.60
2017-10-23T08:06:55.091Z,81.80
2017-10-23T08:07:57.724Z,81.50
2017-10-23T08:08:59.601Z,81.50
2017-10-23T08:10:01.476Z,81.90
2017-10-23T08:11:03.390Z,82.40
2017-10-23T08:12:05.256Z,81.90
2017-10-23T08:13:07.896Z,82.00
2017-10-23T08:14:10.012Z,82.00
2017-10-23T08:15:11.884Z,81.70
2017-10-23T08:16:13.791Z,81.80
2017-10-23T08:17:16.424Z,82.10
2017-10-23T08:18:18.295Z,82.10
2017-10-23T08:19:20.163Z,82.30
2017-10-23T08:20:22.800Z,82.00
2017-10-23T08:21:24.683Z,81.90
2017-10-23T08:22:26.567Z,81.90
2017-10-23T08:23:28.438Z,81.70
2017-10-23T08:24:30.308Z,81.70
2017-10-23T08:25:32.508Z,81.70
2017-10-23T08:26:34.408Z,81.80
2017-10-23T08:27:36.285Z,81.70
2017-10-23T08:28:38.924Z,82.00
2017-10-23T08:29:40.798Z,82.00
2017-10-23T08:30:43.433Z,82.00
2017-10-23T08:31:45.352Z,81.80
2017-10-23T08:32:47.226Z,81.40
2017-10-23T08:33:49.095Z,81.50
2017-10-23T08:34:50.969Z,81.50
2017-10-23T08:35:53.720Z,81.70
2017-10-23T08:36:55.624Z,81.60
2017-10-23T08:37:57.522Z,81.30
2017-10-23T08:38:59.400Z,81.30
2017-10-23T08:40:02.133Z,81.40
2017-10-23T08:41:04.088Z,81.40
2017-10-23T08:42:06.046Z,81.60
2017-10-23T08:43:07.997Z,81.40
2017-10-23T08:44:09.868Z,81.30
2017-10-23T08:45:11.738Z,81.00
2017-10-23T08:46:13.608Z,80.90
2017-10-23T08:47:15.516Z,81.30
2017-10-23T08:48:17.380Z,81.40
2017-10-23T08:49:20.112Z,81.20
2017-10-23T08:50:22.073Z,81.10
2017-10-23T08:51:24.011Z,81.20
2017-10-23T08:52:25.932Z,81.00
2017-10-23T08:53:27.823Z,80.80
2017-10-23T08:54:29.772Z,81.50
2017-10-23T08:55:31.718Z,80.50
2017-10-23T08:56:33.595Z,80.60
2017-10-23T08:57:35.484Z,81.10
2017-10-23T08:58:37.347Z,80.50
2017-10-23T08:59:39.216Z,80.40
2017-10-23T09:00:41.088Z,80.30
2017-10-23T09:01:42.964Z,80.10
2017-10-23T09:02:45.636Z,79.70
2017-10-23T09:03:48.278Z,79.60
2017-10-23T09:04:50.148Z,79.60
2017-10-23T09:05:52.779Z,79.70
2017-10-23T09:06:54.655Z,79.70
2017-10-23T09:07:56.564Z,79.30
2017-10-23T09:08:58.432Z,79.30
2017-10-23T09:10:01.068Z,79.10
2017-10-23T09:11:02.961Z,79.10
2017-10-23T09:12:04.833Z,79.00
2017-10-23T09:13:07.484Z,78.10
2017-10-23T09:14:09.361Z,78.10
2017-10-23T09:15:12.024Z,77.60
2017-10-23T09:16:14.663Z,78.00
2017-10-23T09:17:16.540Z,77.90
2017-10-23T09:18:19.212Z,78.40
2017-10-23T09:19:21.858Z,77.90
2017-10-23T09:20:23.727Z,77.80
2017-10-23T09:21:26.367Z,77.70
2017-10-23T09:22:28.233Z,77.60
2017-10-23T09:23:30.140Z,77.20
2017-10-23T09:24:32.021Z,77.30
2017-10-23T09:25:33.887Z,77.20
2017-10-23T09:26:35.760Z,77.00
2017-10-23T09:27:38.397Z,76.90
2017-10-23T09:28:40.296Z,76.90
2017-10-23T09:29:42.167Z,76.80
2017-10-23T09:30:44.036Z,76.70
2017-10-23T09:31:45.917Z,76.40
2017-10-23T09:32:48.548Z,76.10
2017-10-23T09:33:51.200Z,76.10
2017-10-23T09:34:53.067Z,76.10
2017-10-23T09:35:54.940Z,76.00
2017-10-23T09:36:56.815Z,75.80
2017-10-23T09:37:59.452Z,75.20
2017-10-23T09:39:01.351Z,75.10
2017-10-23T09:40:03.230Z,75.70
2017-10-23T09:41:05.099Z,76.10
2017-10-23T09:42:06.976Z,76.50
2017-10-23T09:43:09.615Z,76.20
2017-10-23T09:44:11.673Z,76.20
2017-10-23T09:45:13.552Z,76.40
2017-10-23T09:46:16.179Z,76.10
2017-10-23T09:47:18.054Z,76.00
2017-10-23T09:48:19.920Z,76.50
2017-10-23T09:49:22.567Z,76.40
2017-10-23T09:50:24.438Z,76.40
2017-10-23T09:51:27.072Z,76.90
2017-10-23T09:52:28.966Z,76.30
2017-10-23T09:53:31.664Z,76.30
2017-10-23T09:54:33.592Z,76.30
2017-10-23T09:55:35.491Z,76.30
2017-10-23T09:56:37.383Z,76.70
2017-10-23T09:57:39.312Z,76.90
2017-10-23T09:58:41.184Z,77.10
2017-10-23T09:59:43.876Z,76.70
2017-10-23T10:00:45.748Z,76.70
2017-10-23T10:01:47.622Z,76.10
2017-10-23T10:02:49.533Z,76.60
2017-10-23T10:03:51.396Z,75.90
2017-10-23T10:04:53.288Z,76.10
2017-10-23T10:05:55.218Z,76.10
2017-10-23T10:06:57.092Z,76.60
2017-10-23T10:07:58.965Z,76.70
2017-10-23T10:09:01.622Z,76.20
2017-10-23T10:10:03.500Z,76.20
2017-10-23T10:11:05.372Z,75.60
2017-10-23T10:12:07.252Z,75.70
2017-10-23T10:13:09.124Z,76.20
2017-10-23T10:14:11.765Z,76.20
2017-10-23T10:15:13.659Z,76.10
2017-10-23T10:16:15.523Z,75.50
2017-10-23T10:17:17.410Z,75.90
2017-10-23T10:18:19.286Z,75.50
2017-10-23T10:19:21.147Z,75.50
2017-10-23T10:20:23.811Z,75.80
2017-10-23T10:21:26.454Z,75.10
2017-10-23T10:22:28.328Z,75.00
2017-10-23T10:23:30.960Z,75.60
2017-10-23T10:24:32.831Z,75.70
2017-10-23T10:25:34.742Z,75.70
2017-10-23T10:26:36.619Z,75.30
2017-10-23T10:27:38.495Z,75.60
2017-10-23T10:28:41.140Z,76.60
2017-10-23T10:29:43.009Z,76.00
2017-10-23T10:30:45.207Z,75.70
2017-10-23T10:31:47.089Z,75.10
2017-10-23T10:32:49.728Z,75.00
2017-10-23T10:33:51.591Z,74.90
2017-10-23T10:34:53.523Z,74.80
2017-10-23T10:35:55.428Z,74.20
2017-10-23T10:36:57.323Z,74.50
2017-10-23T10:37:59.187Z,74.70
2017-10-23T10:39:01.064Z,74.90
2017-10-23T10:40:02.978Z,75.00
2017-10-23T10:41:04.876Z,75.40
2017-10-23T10:42:06.744Z,74.60
2017-10-23T10:43:10.314Z,75.10
2017-10-23T10:44:12.179Z,74.60
2017-10-23T10:45:14.056Z,74.50
2017-10-23T10:46:16.724Z,74.90
2017-10-23T10:47:19.353Z,74.50
2017-10-23T10:48:21.228Z,74.40
2017-10-23T10:49:23.873Z,74.40
2017-10-23T10:50:25.750Z,74.30
2017-10-23T10:51:28.392Z,74.20
2017-10-23T10:52:30.263Z,74.20
2017-10-23T10:53:32.908Z,74.30
2017-10-23T10:54:34.776Z,74.30
2017-10-23T10:55:36.647Z,73.60
2017-10-23T10:56:39.306Z,74.30
2017-10-23T10:57:41.936Z,73.90
2017-10-23T10:58:43.809Z,73.90
2017-10-23T10:59:45.678Z,74.30
2017-10-23T11:00:48.303Z,74.40
2017-10-23T11:01:50.208Z,74.20
2017-10-23T11:02:52.375Z,74.60
2017-10-23T11:03:54.243Z,74.90
2017-10-23T11:04:56.108Z,75.00
2017-10-23T11:05:57.975Z,75.30
2017-10-23T11:06:59.884Z,76.10
2017-10-23T11:08:01.752Z,75.30
2017-10-23T11:09:03.620Z,75.30
2017-10-23T11:10:05.484Z,74.70
2017-10-23T11:11:07.347Z,76.00
2017-10-23T11:12:10.021Z,76.20
2017-10-23T11:13:12.648Z,77.30
2017-10-23T11:14:14.529Z,76.60
2017-10-23T11:15:16.396Z,76.30
2017-10-23T11:16:19.024Z,76.30
2017-10-23T11:17:20.930Z,76.20
2017-10-23T11:18:22.803Z,77.10
2017-10-23T11:19:24.672Z,76.40
2017-10-23T11:20:26.542Z,76.30
2017-10-23T11:21:28.405Z,76.20
2017-10-23T11:22:31.070Z,76.50
2017-10-23T11:23:32.948Z,76.50
2017-10-23T11:24:34.828Z,76.50
2017-10-23T11:25:36.688Z,76.50
2017-10-23T11:26:38.612Z,76.70
2017-10-23T11:27:40.492Z,77.50
2017-10-23T11:28:42.367Z,77.10
2017-10-23T11:29:44.250Z,77.20
2017-10-23T11:30:46.116Z,77.10
2017-10-23T11:31:47.984Z,77.50
2017-10-23T11:32:49.891Z,77.40
2017-10-23T11:33:52.539Z,77.50
2017-10-23T11:34:54.411Z,77.50
2017-10-23T11:35:57.057Z,77.20
2017-10-23T11:36:58.930Z,77.20
2017-10-23T11:38:01.584Z,77.00
2017-10-23T11:39:04.224Z,76.60
2017-10-23T11:40:06.095Z,76.50
2017-10-23T11:41:07.968Z,76.00
2017-10-23T11:42:10.608Z,75.70
2017-10-23T11:43:12.492Z,75.70
2017-10-23T11:44:14.368Z,75.60
2017-10-23T11:45:16.231Z,75.80
2017-10-23T11:46:18.108Z,76.20
2017-10-23T11:47:19.994Z,76.50
2017-10-23T11:48:21.876Z,76.60
2017-10-23T11:49:23.744Z,77.00
2017-10-23T11:50:25.616Z,77.20
2017-10-23T11:51:27.524Z,77.20
2017-10-23T11:52:29.409Z,77.20
2017-10-23T11:53:31.424Z,77.50
2017-10-23T11:54:33.288Z,77.60
2017-10-23T11:55:35.171Z,78.10
2017-10-23T11:56:37.056Z,77.50
2017-10-23T11:57:38.924Z,77.50
2017-10-23T11:58:40.829Z,77.60
2017-10-23T11:59:42.706Z,77.70
2017-10-23T12:00:44.576Z,77.90
2017-10-23T12:01:46.444Z,78.00
2017-10-23T12:02:48.320Z,78.40
2017-10-23T12:03:50.521Z,78.60
2017-10-23T12:04:52.433Z,78.30
2017-10-23T12:05:54.300Z,78.70
2017-10-23T12:06:56.952Z,78.70
2017-10-23T12:07:58.823Z,78.70
2017-10-23T12:09:01.552Z,78.50
2017-10-23T12:10:03.425Z,78.40
2017-10-23T12:11:05.303Z,78.80
2017-10-23T12:12:07.173Z,78.70
2017-10-23T12:13:09.046Z,78.50
2017-10-23T12:14:11.016Z,78.40
2017-10-23T12:15:12.880Z,78.80
2017-10-23T12:16:14.747Z,78.50
2017-10-23T12:17:17.380Z,78.50
2017-10-23T12:18:19.251Z,78.50
2017-10-23T12:19:21.139Z,78.40
2017-10-23T12:20:23.008Z,78.30
2017-10-23T12:21:24.875Z,78.00
2017-10-23T12:22:26.750Z,78.10
2017-10-23T12:23:28.625Z,78.40
2017-10-23T12:24:31.293Z,77.70
2017-10-23T12:25:33.927Z,78.20
2017-10-23T12:26:36.132Z,78.20
2017-10-23T12:27:38.008Z,78.30
2017-10-23T12:28:39.920Z,78.40
2017-10-23T12:29:42.593Z,77.30
2017-10-23T12:30:44.497Z,77.30
2017-10-23T12:31:46.453Z,77.50
2017-10-23T12:32:48.320Z,77.60
2017-10-23T12:33:50.232Z,78.10
2017-10-23T12:34:52.141Z,77.50
2017-10-23T12:35:54.033Z,77.50
2017-10-23T12:36:55.952Z,76.40
2017-10-23T12:37:57.898Z,76.80
2017-10-23T12:39:00.561Z,76.10
2017-10-23T12:40:03.230Z,76.50
2017-10-23T12:41:05.941Z,76.10
2017-10-23T12:42:07.831Z,76.00
2017-10-23T12:43:09.788Z,76.00
2017-10-23T12:44:11.663Z,76.50
2017-10-23T12:45:13.601Z,75.20
2017-10-23T12:46:16.303Z,75.70
2017-10-23T12:47:18.289Z,75.70
2017-10-23T12:48:20.210Z,75.40
2017-10-23T12:49:22.169Z,74.80
2017-10-23T12:50:24.155Z,74.70
2017-10-23T12:51:26.261Z,74.70
2017-10-23T12:52:28.142Z,74.10
2017-10-23T12:53:30.008Z,74.30
2017-10-23T12:54:31.880Z,73.40
2017-10-23T12:55:34.536Z,73.10
2017-10-23T12:56:36.408Z,73.00
2017-10-23T12:57:39.048Z,73.30
2017-10-23T12:58:40.924Z,73.30
2017-10-23T12:59:43.571Z,72.60
2017-10-23T13:00:45.479Z,72.60
2017-10-23T13:01:47.351Z,72.30
2017-10-23T13:02:49.219Z,72.50
2017-10-23T13:03:51.092Z,71.90
2017-10-23T13:04:53.736Z,71.00
2017-10-23T13:05:55.639Z,71.00
2017-10-23T13:06:57.503Z,70.90
2017-10-23T13:07:59.385Z,71.00
2017-10-23T13:09:01.255Z,70.60
2017-10-23T13:10:03.901Z,71.40
2017-10-23T13:11:05.779Z,71.30
2017-10-23T13:12:08.413Z,70.40
2017-10-23T13:13:10.288Z,70.30
2017-10-23T13:14:12.156Z,70.80
2017-10-23T13:15:14.798Z,70.20
2017-10-23T13:16:16.710Z,70.20
2017-10-23T13:17:18.577Z,71.20
2017-10-23T13:18:20.452Z,70.00
2017-10-23T13:19:22.323Z,70.40
2017-10-23T13:20:24.207Z,70.70
2017-10-23T13:21:26.127Z,70.70
2017-10-23T13:22:28.759Z,70.30
2017-10-23T13:23:30.660Z,70.30
2017-10-23T13:24:32.540Z,71.20
2017-10-23T13:25:34.404Z,70.60
2017-10-23T13:26:36.409Z,71.30
2017-10-23T13:27:38.280Z,70.30
2017-10-23T13:28:40.168Z,70.60
2017-10-23T13:29:42.036Z,71.70
2017-10-23T13:30:43.921Z,71.00
2017-10-23T13:31:46.023Z,71.30
2017-10-23T13:32:47.896Z,71.40
2017-10-23T13:33:50.552Z,70.40
2017-10-23T13:34:52.424Z,70.30
2017-10-23T13:35:55.067Z,70.90
2017-10-23T13:36:56.972Z,70.80
2017-10-23T13:37:58.849Z,70.80
2017-10-23T13:39:00.732Z,70.70
2017-10-23T13:40:02.637Z,71.00
2017-10-23T13:41:04.512Z,71.10
2017-10-23T13:42:06.449Z,70.90
2017-10-23T13:43:08.316Z,71.00
2017-10-23T13:44:10.189Z,70.70
2017-10-23T13:45:12.822Z,71.70
2017-10-23T13:46:14.691Z,71.00
2017-10-23T13:47:16.580Z,70.20
2017-10-23T13:48:18.448Z,70.30
2017-10-23T13:49:20.315Z,70.30
2017-10-23T13:50:22.230Z,70.50
2017-10-23T13:51:24.859Z,70.30
2017-10-23T13:52:26.767Z,70.30
2017-10-23T13:53:28.639Z,69.90
2017-10-23T13:54:30.516Z,69.80
2017-10-23T13:55:32.380Z,70.40
2017-10-23T13:56:35.020Z,70.60
2017-10-23T13:57:36.931Z,70.40
2017-10-23T13:58:38.795Z,70.20
2017-10-23T13:59:40.687Z,70.20
2017-10-23T14:00:42.555Z,69.40
2017-10-23T14:01:45.191Z,69.20
2017-10-23T14:02:47.087Z,69.20
2017-10-23T14:03:49.712Z,69.90
2017-10-23T14:04:51.585Z,69.80
2017-10-23T14:05:53.456Z,68.60
2017-10-23T14:06:56.341Z,69.20
2017-10-23T14:07:58.248Z,69.10
2017-10-23T14:09:00.116Z,67.60
2017-10-23T14:10:02.753Z,68.60
2017-10-23T14:11:04.621Z,68.60
2017-10-23T14:12:06.504Z,69.30
2017-10-23T14:13:08.384Z,69.50
2017-10-23T14:14:10.255Z,68.80
2017-10-23T14:15:12.136Z,69.30
2017-10-23T14:16:14.767Z,69.60
2017-10-23T14:17:17.403Z,69.60
2017-10-23T14:18:19.292Z,69.50
2017-10-23T14:19:21.168Z,69.80
2017-10-23T14:20:23.811Z,69.90
2017-10-23T14:21:25.684Z,69.90
2017-10-23T14:22:27.557Z,69.80
2017-10-23T14:23:30.199Z,70.40
2017-10-23T14:24:33.681Z,70.30
2017-10-23T14:25:35.552Z,70.30
2017-10-23T14:26:38.193Z,70.30
2017-10-23T14:27:40.055Z,70.30
2017-10-23T14:28:41.943Z,70.20
2017-10-23T14:29:43.818Z,70.50
2017-10-23T14:30:45.684Z,70.20
2017-10-23T14:31:47.556Z,70.40
2017-10-23T14:33:51.455Z,70.50
2017-10-23T14:34:53.324Z,71.30
2017-10-23T14:35:55.956Z,70.60
2017-10-23T14:36:57.828Z,70.50
2017-10-23T14:37:59.696Z,70.50
2017-10-23T14:39:02.369Z,71.00
2017-10-23T14:40:05.004Z,71.20
2017-10-23T14:41:06.873Z,71.20
2017-10-23T14:42:09.503Z,70.80
2017-10-23T14:43:11.376Z,70.80
2017-10-23T14:44:13.261Z,71.10
2017-10-23T14:45:15.887Z,71.10
2017-10-23T14:46:17.774Z,71.00
2017-10-23T14:47:20.411Z,71.40
2017-10-23T14:48:22.286Z,71.30
2017-10-23T14:49:24.958Z,71.20
2017-10-23T14:50:27.593Z,71.40
2017-10-23T14:51:29.468Z,71.40
2017-10-23T14:52:31.336Z,71.50
2017-10-23T14:53:34.229Z,71.70
2017-10-23T14:54:36.118Z,71.70
2017-10-23T14:55:38.000Z,72.00
2017-10-23T14:56:40.634Z,71.40
2017-10-23T14:57:42.511Z,71.30
2017-10-23T14:58:44.391Z,71.40
2017-10-23T14:59:46.288Z,71.60
2017-10-23T15:00:48.163Z,71.00
2017-10-23T15:01:50.819Z,71.90
2017-10-23T15:02:52.696Z,71.20
2017-10-23T15:03:55.351Z,71.50
2017-10-23T15:04:58.016Z,71.60
2017-10-23T15:05:59.888Z,71.60
2017-10-23T15:07:02.525Z,71.80
2017-10-23T15:08:04.408Z,71.70
2017-10-23T15:09:06.276Z,72.30
2017-10-23T15:10:08.264Z,72.20
2017-10-23T15:11:10.136Z,71.70
2017-10-23T15:12:12.008Z,71.80
2017-10-23T15:13:14.648Z,72.30
2017-10-23T15:14:17.428Z,72.20
2017-10-23T15:15:19.313Z,72.50
2017-10-23T15:16:21.194Z,72.60
2017-10-23T15:17:23.068Z,72.60
2017-10-23T15:18:24.952Z,72.40
2017-10-23T15:19:27.688Z,72.70
2017-10-23T15:20:29.587Z,72.50
2017-10-23T15:21:31.463Z,72.80
2017-10-23T15:22:33.336Z,72.80
2017-10-23T15:23:35.220Z,73.00
2017-10-23T15:24:37.962Z,73.10
2017-10-23T15:25:39.912Z,73.00
2017-10-23T15:26:41.784Z,73.10
2017-10-23T15:27:44.425Z,73.50
2017-10-23T15:28:46.376Z,73.60
2017-10-23T15:29:48.259Z,73.50
2017-10-23T15:30:50.920Z,74.40
2017-10-23T15:31:52.849Z,73.70
2017-10-23T15:32:56.331Z,73.90
2017-10-23T15:33:58.290Z,73.90
2017-10-23T15:35:00.165Z,74.00
2017-10-23T15:36:02.093Z,74.10
2017-10-23T15:37:03.964Z,74.10
2017-10-23T15:38:06.608Z,74.40
2017-10-23T15:39:08.561Z,74.40
2017-10-23T15:40:10.447Z,75.10
2017-10-23T15:41:13.087Z,75.20
2017-10-23T15:42:15.732Z,75.40
2017-10-23T15:43:17.704Z,75.30
2017-10-23T15:44:19.652Z,75.40
2017-10-23T15:45:21.604Z,75.50
2017-10-23T15:46:23.820Z,75.50
2017-10-23T15:47:25.695Z,75.50
2017-10-23T15:48:27.663Z,75.80
2017-10-23T15:49:29.535Z,75.90
2017-10-23T15:50:31.474Z,75.80
2017-10-23T15:51:33.347Z,75.90
2017-10-23T15:52:35.992Z,76.20
2017-10-23T15:53:38.101Z,76.10
2017-10-23T15:54:39.971Z,76.00
2017-10-23T15:55:41.856Z,76.00
2017-10-23T15:56:43.760Z,76.30
2017-10-23T15:57:45.636Z,76.20
2017-10-23T15:58:47.500Z,76.30
2017-10-23T15:59:49.368Z,76.50
2017-10-23T16:00:51.247Z,76.50
2017-10-23T16:01:53.148Z,76.90
2017-10-23T16:02:55.021Z,77.20
2017-10-23T16:03:56.883Z,76.90
2017-10-23T16:04:58.769Z,77.20
2017-10-23T16:06:00.631Z,77.20
2017-10-23T16:07:02.528Z,77.10
2017-10-23T16:08:05.159Z,77.40
2017-10-23T16:09:07.038Z,77.40
2017-10-23T16:10:08.904Z,77.50
2017-10-23T16:11:11.544Z,77.60
2017-10-23T16:12:13.435Z,77.60
2017-10-23T16:13:15.315Z,78.30
2017-10-23T16:14:17.188Z,77.90
2017-10-23T16:15:19.055Z,78.00
2017-10-23T16:16:20.920Z,78.60
2017-10-23T16:17:23.578Z,78.30
2017-10-23T16:18:25.450Z,78.30
2017-10-23T16:19:28.087Z,78.70
2017-10-23T16:20:29.952Z,78.60
2017-10-23T16:21:32.583Z,78.80
2017-10-23T16:22:34.489Z,78.20
2017-10-23T16:23:36.367Z,78.30
2017-10-23T16:24:38.241Z,78.80
2017-10-23T16:25:40.107Z,78.70
2017-10-23T16:26:41.971Z,78.50
2017-10-23T16:27:44.639Z,78.70
2017-10-23T16:28:47.281Z,79.20
2017-10-23T16:29:49.152Z,78.70
2017-10-23T16:30:51.024Z,78.90
2017-10-23T16:31:53.660Z,79.20
2017-10-23T16:32:55.543Z,79.20
2017-10-23T16:33:58.175Z,79.40
2017-10-23T16:35:00.052Z,79.40
2017-10-23T16:36:02.703Z,79.80
2017-10-23T16:37:04.579Z,79.70
2017-10-23T16:38:07.231Z,79.70
2017-10-23T16:39:09.865Z,80.20
2017-10-23T16:40:11.745Z,79.90
2017-10-23T16:41:13.603Z,80.10
2017-10-23T16:42:16.240Z,80.30
2017-10-23T16:43:18.127Z,80.30
2017-10-23T16:44:20.763Z,80.50
2017-10-23T16:45:22.637Z,80.50
2017-10-23T16:46:24.517Z,80.50
2017-10-23T16:47:26.405Z,80.70
2017-10-23T16:48:28.300Z,80.80
2017-10-23T16:49:30.963Z,80.80
2017-10-23T16:50:33.602Z,81.00
2017-10-23T16:51:35.557Z,81.00
2017-10-23T16:52:37.492Z,81.10
2017-10-23T16:53:39.396Z,81.30
2017-10-23T16:54:42.032Z,81.30
2017-10-23T16:55:43.900Z,81.30
2017-10-23T16:56:46.544Z,81.60
2017-10-23T16:57:48.762Z,81.60
2017-10-23T16:58:50.651Z,81.90
2017-10-23T16:59:52.519Z,82.00
2017-10-23T17:00:54.396Z,82.00
2017-10-23T17:01:57.124Z,82.60
2017-10-23T17:02:59.001Z,82.60
2017-10-23T17:04:01.849Z,81.80
2017-10-23T17:05:03.796Z,82.30
2017-10-23T17:06:05.677Z,82.40
2017-10-23T17:07:08.312Z,82.70
2017-10-23T17:08:10.268Z,82.60
2017-10-23T17:09:12.219Z,82.80
2017-10-23T17:10:14.088Z,82.80
2017-10-23T17:11:16.024Z,83.00
2017-10-23T17:12:17.911Z,83.10
2017-10-23T17:13:20.543Z,83.00
2017-10-23T17:14:22.491Z,83.00
2017-10-23T17:15:24.443Z,83.10
2017-10-23T17:16:26.400Z,83.20
2017-10-23T17:17:28.352Z,83.40
2017-10-23T17:18:30.287Z,83.20
2017-10-23T17:19:32.252Z,83.20
2017-10-23T17:20:34.208Z,83.20
2017-10-23T17:21:36.181Z,83.30
2017-10-23T17:22:38.111Z,83.50
2017-10-23T17:23:40.072Z,83.60
2017-10-23T17:24:42.024Z,83.70
2017-10-23T17:25:43.899Z,83.60
2017-10-23T17:26:46.668Z,83.70
2017-10-23T17:27:49.324Z,83.80
2017-10-23T17:28:51.264Z,83.80
2017-10-23T17:29:53.212Z,84.00
2017-10-23T17:30:55.168Z,84.00
2017-10-23T17:31:57.117Z,84.00
2017-10-23T17:32:59.068Z,84.20
2017-10-23T17:34:01.020Z,84.20
2017-10-23T17:35:03.240Z,84.30
2017-10-23T17:36:05.135Z,84.10
2017-10-23T17:37:07.007Z,84.40
2017-10-23T17:38:09.749Z,84.50
2017-10-23T17:39:11.700Z,84.50
2017-10-23T17:40:13.591Z,84.60
2017-10-23T17:41:16.319Z,84.80
2017-10-23T17:42:18.284Z,84.80
2017-10-23T17:43:20.232Z,85.00
2017-10-23T17:44:22.184Z,84.90
2017-10-23T17:45:24.140Z,85.10
2017-10-23T17:46:26.084Z,85.30
2017-10-23T17:47:28.036Z,85.20
2017-10-23T17:48:29.915Z,85.20
2017-10-23T17:49:32.659Z,85.30
2017-10-23T17:50:34.548Z,85.30
2017-10-23T17:51:37.206Z,85.40
2017-10-23T17:52:39.083Z,85.30
2017-10-23T17:53:40.993Z,85.30
2017-10-23T17:54:42.876Z,85.30
2017-10-23T17:55:44.779Z,85.20
2017-10-23T17:56:46.731Z,85.30
2017-10-23T17:57:48.685Z,85.20
2017-10-23T17:58:50.655Z,85.30
2017-10-23T17:59:52.590Z,85.10
2017-10-23T18:00:54.559Z,85.30
2017-10-23T18:01:56.453Z,85.20
2017-10-23T18:02:58.348Z,86.00
2017-10-23T18:04:00.221Z,85.30
2017-10-23T18:05:02.861Z,85.40
2017-10-23T18:06:04.821Z,85.30
2017-10-23T18:07:06.693Z,85.20
2017-10-23T18:08:09.332Z,85.30
2017-10-23T18:09:11.279Z,85.30
2017-10-23T18:10:13.148Z,85.30
2017-10-23T18:11:15.088Z,85.20
2017-10-23T18:12:16.983Z,85.20
2017-10-23T18:13:19.617Z,85.10
2017-10-23T18:14:21.561Z,85.10
2017-10-23T18:15:23.508Z,85.20
2017-10-23T18:16:25.421Z,85.10
2017-10-23T18:17:27.296Z,85.30
2017-10-23T18:18:29.167Z,85.30
2017-10-23T18:19:31.044Z,85.20
2017-10-23T18:20:33.782Z,85.30
2017-10-23T18:21:35.734Z,85.20
2017-10-23T18:22:38.409Z,84.80
2017-10-23T18:23:40.279Z,85.10
2017-10-23T18:24:43.023Z,85.00
2017-10-23T18:25:44.975Z,85.00
2017-10-23T18:26:46.925Z,85.20
2017-10-23T18:27:48.875Z,85.30
2017-10-23T18:28:50.840Z,85.20
2017-10-23T18:29:52.717Z,85.40
2017-10-23T18:30:55.570Z,85.40
2017-10-23T18:31:57.504Z,85.30
2017-10-23T18:32:59.393Z,85.30
2017-10-23T18:34:02.128Z,85.40
2017-10-23T18:35:04.000Z,85.40
2017-10-23T18:36:05.871Z,85.50
2017-10-23T18:37:08.540Z,85.60
2017-10-23T18:38:11.271Z,85.70
2017-10-23T18:39:13.220Z,85.70
2017-10-23T18:40:15.168Z,85.70
2017-10-23T18:41:17.120Z,85.70
2017-10-23T18:42:19.074Z,85.70
2017-10-23T18:43:20.951Z,85.90
2017-10-23T18:44:23.583Z,86.80
2017-10-23T18:45:25.711Z,86.80
2017-10-23T18:46:28.548Z,86.20
2017-10-23T18:47:31.296Z,86.50
2017-10-23T18:48:33.164Z,86.30
2017-10-23T18:49:35.101Z,86.30
2017-10-23T18:50:36.981Z,86.40
2017-10-23T18:51:39.614Z,86.60
2017-10-23T18:52:41.672Z,86.60
2017-10-23T18:53:43.624Z,86.70
2017-10-23T18:54:45.579Z,86.70
2017-10-23T18:55:47.527Z,86.80
2017-10-23T18:56:49.400Z,86.70
2017-10-23T18:57:52.068Z,86.60
2017-10-23T18:58:54.724Z,87.50
2017-10-23T18:59:56.672Z,87.00
2017-10-23T19:00:58.621Z,87.00
2017-10-23T19:02:00.496Z,86.90
2017-10-23T19:03:03.144Z,87.00
2017-10-23T19:04:05.247Z,86.90
2017-10-23T19:05:07.143Z,87.00
2017-10-23T19:06:09.087Z,87.10
2017-10-23T19:07:10.960Z,87.10
2017-10-23T19:08:13.614Z,87.30
2017-10-23T19:09:15.566Z,87.40
2017-10-23T19:10:17.515Z,87.30
2017-10-23T19:11:19.468Z,87.30
2017-10-23T19:12:21.432Z,87.50
2017-10-23T19:13:23.375Z,87.40
2017-10-23T19:14:25.243Z,87.50
2017-10-23T19:15:27.478Z,87.70
2017-10-23T19:16:29.442Z,87.70
2017-10-23T19:17:31.312Z,87.80
2017-10-23T19:18:34.060Z,87.70
2017-10-23T19:19:36.011Z,87.70
2017-10-23T19:20:37.904Z,87.80
2017-10-23T19:21:40.551Z,87.80
2017-10-23T19:22:42.484Z,87.80
2017-10-23T19:23:44.391Z,87.80
2017-10-23T19:24:46.267Z,87.70
2017-10-23T19:25:48.140Z,87.80
2017-10-23T19:26:50.079Z,87.70
2017-10-23T19:27:51.956Z,87.70
2017-10-23T19:28:53.852Z,87.50
2017-10-23T19:29:55.758Z,87.60
2017-10-23T19:30:57.627Z,87.50
2017-10-23T19:32:00.264Z,87.40
2017-10-23T19:33:02.138Z,87.40
2017-10-23T19:34:04.897Z,88.10
2017-10-23T19:35:06.831Z,87.30
2017-10-23T19:36:08.785Z,87.80
2017-10-23T19:37:10.724Z,87.30
2017-10-23T19:38:12.692Z,87.30
2017-10-23T19:39:14.647Z,87.30
2017-10-23T19:40:16.593Z,87.20
2017-10-23T19:41:18.540Z,87.10
2017-10-23T19:42:20.495Z,87.20
2017-10-23T19:43:22.643Z,87.20
2017-10-23T19:44:24.605Z,87.20
2017-10-23T19:45:26.488Z,87.10
2017-10-23T19:46:29.166Z,87.90
2017-10-23T19:47:31.142Z,87.20